Time;durP1;ratioP1;P1;durP2;ratioP2;P2;SDS_P1;SDS_P2;PMS_P1;PMS_P2;Temp;Humidity;BMP_temperature;BMP_pressure;BME280_temperature;BME280_humidity;BME280_pressure;Samples;Min_cycle;Max_cycle;Signal;HPM_P1;HPM_P2
2022/05/20 00:01:28;;;;;;;8.30;2.42;;;;;;;9.93;52.59;99810.87;1715360;83;21156;-42
2022/05/20 00:03:54;;;;;;;5.00;2.12;;;;;;;9.95;52.90;99806.70;1715320;83;20955;-43
2022/05/20 00:06:21;;;;;;;5.95;2.40;;;;;;;9.90;52.32;99802.09;1715545;83;21092;-43
2022/05/20 00:08:48;;;;;;;7.58;2.60;;;;;;;9.83;51.60;99804.02;1715505;83;21471;-42
2022/05/20 00:11:15;;;;;;;4.83;2.08;;;;;;;9.84;53.02;99811.59;1715602;83;21061;-43
2022/05/20 00:13:45;;;;;;;5.70;2.30;;;;;;;9.87;53.98;99813.06;1715501;83;21024;-43
2022/05/20 00:16:12;;;;;;;4.42;2.50;;;;;;;9.90;54.16;99805.59;1715458;83;21088;-42
2022/05/20 00:18:39;;;;;;;3.70;2.25;;;;;;;9.91;53.35;99805.03;1715442;83;20977;-43
2022/05/20 00:21:05;;;;;;;9.25;2.90;;;;;;;9.88;52.33;99796.22;1715480;83;21033;-43
2022/05/20 00:23:33;;;;;;;5.30;2.72;;;;;;;9.84;51.27;99801.55;1715715;83;21012;-43
2022/05/20 00:25:59;;;;;;;7.70;2.77;;;;;;;9.85;52.56;99805.84;1715293;83;21237;-43
2022/05/20 00:28:28;;;;;;;4.03;2.90;;;;;;;9.90;52.94;99806.95;1715272;83;21020;-43
2022/05/20 00:31:00;;;;;;;6.17;2.42;;;;;;;9.93;53.02;99795.41;1715718;83;21052;-43
2022/05/20 00:33:28;;;;;;;7.55;2.42;;;;;;;9.98;52.79;99795.17;1751362;81;21041;-43
2022/05/20 00:35:55;;;;;;;10.38;2.80;;;;;;;10.02;52.68;99792.58;1751656;82;21076;-43
2022/05/20 00:38:21;;;;;;;4.90;2.80;;;;;;;10.05;51.36;99797.30;1715250;83;21253;-42
2022/05/20 00:40:51;;;;;;;6.83;2.87;;;;;;;10.07;50.76;99795.61;1715266;83;21577;-42
2022/05/20 00:43:35;;;;;;;6.17;2.77;;;;;;;10.08;50.76;99797.95;1715395;83;21073;-43
2022/05/20 00:46:10;;;;;;;4.70;2.70;;;;;;;10.13;51.41;99800.98;1751378;82;21062;-43
2022/05/20 00:48:37;;;;;;;6.08;2.65;;;;;;;10.17;51.49;99797.83;1714999;83;21049;-42
2022/05/20 00:51:21;;;;;;;5.47;2.95;;;;;;;10.20;50.98;99797.16;1715165;83;21211;-43
2022/05/20 00:53:57;;;;;;;7.65;3.17;;;;;;;10.23;50.22;99791.03;1709886;83;21682;-43
2022/05/20 00:56:28;;;;;;;8.68;3.08;;;;;;;10.25;49.76;99783.36;1715251;83;21568;-42
2022/05/20 00:58:55;;;;;;;7.47;3.08;;;;;;;10.27;49.40;99780.51;1746553;82;21240;-43
2022/05/20 01:01:22;;;;;;;4.97;3.33;;;;;;;10.29;49.36;99782.88;1715278;83;21080;-43
2022/05/20 01:03:49;;;;;;;8.88;3.20;;;;;;;10.33;49.30;99791.89;1715503;83;21144;-43
2022/05/20 01:06:16;;;;;;;6.22;2.90;;;;;;;10.39;49.35;99794.58;1687390;83;21611;-43
2022/05/20 01:08:43;;;;;;;4.53;3.00;;;;;;;10.44;49.21;99791.61;1715510;83;21589;-43
2022/05/20 01:11:10;;;;;;;9.28;3.15;;;;;;;10.51;49.32;99786.36;1715434;83;21068;-43
2022/05/20 01:13:36;;;;;;;9.30;2.95;;;;;;;10.56;48.79;99782.60;1715616;83;21001;-43
2022/05/20 01:16:08;;;;;;;5.42;3.22;;;;;;;10.61;48.81;99776.92;1715510;83;21249;-43
2022/05/20 01:18:36;;;;;;;7.80;3.22;;;;;;;10.66;48.77;99770.67;1715642;83;20993;-43
2022/05/20 01:21:04;;;;;;;3.77;2.30;;;;;;;10.71;48.58;99766.34;1715824;83;21028;-43
2022/05/20 01:23:34;;;;;;;7.90;3.10;;;;;;;10.76;48.46;99770.16;1715501;83;20985;-43
2022/05/20 01:26:00;;;;;;;;;;;;;;;10.80;48.39;99773.73;1686083;83;21507;-43
2022/05/20 01:28:30;;;;;;;8.05;3.15;;;;;;;10.84;48.36;99773.84;1699502;84;23154;-43
2022/05/20 01:31:04;;;;;;;8.25;3.12;;;;;;;10.77;48.69;99769.59;1699498;84;21553;-43
2022/05/20 01:33:35;;;;;;;6.60;3.27;;;;;;;10.80;48.46;99772.37;1699898;84;21045;-43
2022/05/20 01:36:06;;;;;;;7.85;3.33;;;;;;;10.83;48.53;99771.70;1715120;83;21025;-43
2022/05/20 01:38:33;;;;;;;6.53;3.20;;;;;;;10.84;48.56;99771.89;1745417;81;21010;-43
2022/05/20 01:41:15;;;;;;;5.15;2.67;;;;;;;10.86;48.73;99772.34;1745123;82;21292;-43
2022/05/20 01:44:12;;;;;;;6.30;2.90;;;;;;;10.87;48.73;99766.34;1743651;82;21496;-43
2022/05/20 01:47:00;;;;;;;4.80;3.08;;;;;;;10.85;48.83;99761.27;1743292;82;21426;-42
2022/05/20 01:49:48;;;;;;;6.70;2.87;;;;;;;10.83;49.15;99766.84;1743449;82;21017;-43
2022/05/20 01:52:40;;;;;;;5.90;3.40;;;;;;;10.83;49.11;99762.77;1707559;83;21044;-43
2022/05/20 01:55:18;;;;;;;5.75;3.27;;;;;;;10.82;48.93;99761.98;1743497;82;21298;-42
2022/05/20 01:58:16;;;;;;;6.25;3.15;;;;;;;10.82;49.09;99761.98;1734861;82;20957;-43
2022/05/20 02:00:45;;;;;;;5.35;2.45;;;;;;;10.83;49.11;99762.20;1743861;81;21519;-43
2022/05/20 02:03:30;;;;;;;6.97;3.80;;;;;;;10.81;49.22;99760.97;1743298;82;21037;-43
2022/05/20 02:06:10;;;;;;;6.55;3.30;;;;;;;10.82;49.33;99760.62;1743472;81;20982;-43
2022/05/20 02:08:46;;;;;;;8.63;3.70;;;;;;;10.80;49.40;99765.59;1743774;82;21216;-43
2022/05/20 02:11:43;;;;;;;7.53;3.22;;;;;;;10.78;49.57;99767.89;1707788;84;21626;-43
2022/05/20 02:14:19;;;;;;;6.70;3.70;;;;;;;10.80;49.49;99766.95;1743594;82;21029;-43
2022/05/20 02:17:06;;;;;;;6.70;3.40;;;;;;;10.84;49.88;99768.42;1743886;81;21776;-43
2022/05/20 02:19:40;;;;;;;5.47;3.17;;;;;;;10.86;49.59;99772.34;1708082;84;21061;-43
2022/05/20 02:22:12;;;;;;;8.13;2.98;;;;;;;10.86;49.60;99768.27;1708158;83;21192;-43
2022/05/20 02:24:39;;;;;;;7.72;3.58;;;;;;;10.86;49.78;99766.91;1707902;84;21001;-43
2022/05/20 02:27:08;;;;;;;6.62;3.22;;;;;;;10.86;49.92;99765.56;1707745;84;20969;-43
2022/05/20 02:29:56;;;;;;;8.63;3.20;;;;;;;10.87;50.06;99767.70;1707922;84;20968;-43
2022/05/20 02:32:35;;;;;;;7.47;3.08;;;;;;;10.87;50.08;99760.92;1707646;84;21036;-43
2022/05/20 02:35:04;;;;;;;5.05;3.20;;;;;;;10.83;50.24;99766.27;1743594;82;21005;-43
2022/05/20 02:37:35;;;;;;;6.78;3.40;;;;;;;10.78;50.37;99773.31;1743337;82;21005;-43
2022/05/20 02:40:02;;;;;;;6.90;3.33;;;;;;;10.78;50.51;99770.60;1746600;81;21094;-43
2022/05/20 02:42:29;;;;;;;7.75;3.25;;;;;;;10.78;50.51;99770.60;1756723;81;21088;-43
2022/05/20 02:44:59;;;;;;;6.12;3.10;;;;;;;10.78;50.25;99762.47;1756670;81;21080;-43
2022/05/20 02:47:31;;;;;;;5.42;3.10;;;;;;;10.80;50.29;99772.37;1757170;81;21092;-43
2022/05/20 02:50:01;;;;;;;6.17;2.80;;;;;;;10.79;50.16;99770.83;1756610;81;20993;-43
2022/05/20 02:54:06;;;;;;;5.10;3.27;;;;;;;10.88;50.24;99771.43;1775125;79;22563;-42
2022/05/20 02:56:33;;;;;;;6.80;3.55;;;;;;;10.84;50.47;99769.77;1746515;82;20983;-42
2022/05/20 03:04:31;;;;;;;6.37;3.12;;;;;;;10.97;50.48;99768.53;1746422;82;20967;-42
2022/05/20 03:06:58;;;;;;;7.90;3.33;;;;;;;11.03;50.59;99764.98;1746729;82;21029;-43
2022/05/20 03:09:26;;;;;;;6.28;3.00;;;;;;;11.11;50.44;99769.42;1746718;82;21662;-43
2022/05/20 03:11:52;;;;;;;8.00;3.33;;;;;;;11.17;50.34;99768.02;1746728;82;21159;-42
2022/05/20 03:14:21;;;;;;;6.22;2.80;;;;;;;11.22;50.33;99773.97;1746461;82;21569;-42
2022/05/20 03:16:49;;;;;;;6.30;3.20;;;;;;;11.28;50.50;99767.67;1787648;80;21016;-42
2022/05/20 03:19:16;;;;;;;4.78;3.02;;;;;;;11.33;50.30;99759.26;1788272;80;20961;-42
2022/05/20 03:21:44;;;;;;;5.70;2.80;;;;;;;11.37;50.53;99758.80;1788465;80;21004;-42
2022/05/20 03:24:11;;;;;;;9.55;3.30;;;;;;;11.41;50.31;99767.80;1788297;80;22117;-42
2022/05/20 03:26:37;;;;;;;5.47;3.00;;;;;;;11.44;50.37;99773.86;1788506;80;20913;-42
2022/05/20 03:29:05;;;;;;;6.33;2.87;;;;;;;11.45;50.24;99776.80;1788499;80;21578;-42
2022/05/20 03:31:33;;;;;;;5.45;3.15;;;;;;;11.48;50.50;99774.72;1788565;80;21011;-42
2022/05/20 03:34:05;;;;;;;6.05;3.00;;;;;;;11.50;50.67;99772.45;1788273;80;21009;-42
2022/05/20 03:36:30;;;;;;;8.07;3.03;;;;;;;11.58;50.81;99764.66;1788266;80;21137;-42
2022/05/20 03:38:58;;;;;;;5.00;2.90;;;;;;;11.58;50.81;99764.66;1788294;80;21495;-42
2022/05/20 03:41:24;;;;;;;7.47;3.15;;;;;;;11.61;50.38;99762.61;1788389;80;20893;-42
2022/05/20 03:43:51;;;;;;;5.83;3.40;;;;;;;11.64;50.31;99770.03;1788220;80;21036;-42
2022/05/20 03:46:18;;;;;;;7.58;2.90;;;;;;;11.68;50.21;99776.32;1788262;80;21590;-42
2022/05/20 03:48:45;;;;;;;4.50;3.08;;;;;;;11.72;50.50;99780.46;1788362;80;21225;-42
2022/05/20 03:51:13;;;;;;;5.35;2.85;;;;;;;11.75;50.54;99790.09;1788069;80;20984;-42
2022/05/20 03:53:40;;;;;;;5.25;3.02;;;;;;;11.78;50.44;99786.43;1784627;80;21020;-43
2022/05/20 03:56:07;;;;;;;6.12;2.90;;;;;;;11.81;50.78;99788.45;1782653;80;20985;-42
2022/05/20 03:58:36;;;;;;;6.45;2.85;;;;;;;11.85;51.06;99781.16;1783261;80;21606;-42
2022/05/20 04:03:50;;;;;;;9.65;2.87;;;;;;;11.98;52.18;99798.88;1757517;80;21068;-42
2022/05/20 04:06:16;;;;;;;4.03;3.00;;;;;;;12.05;53.61;99804.47;1782737;80;21032;-42
2022/05/20 04:08:44;;;;;;;5.62;2.95;;;;;;;12.13;54.07;99798.81;1782540;80;21673;-42
2022/05/20 04:11:11;;;;;;;5.20;2.80;;;;;;;12.21;54.18;99803.80;1782633;80;20993;-42
2022/05/20 04:13:40;;;;;;;8.70;2.77;;;;;;;12.31;54.03;99803.22;1782699;80;21491;-42
2022/05/20 04:16:08;;;;;;;5.75;2.95;;;;;;;12.39;54.49;99798.12;1782481;80;20929;-42
2022/05/20 04:18:35;;;;;;;5.75;2.77;;;;;;;12.47;54.76;99808.00;1782347;80;21009;-42
2022/05/20 04:21:02;;;;;;;5.87;2.77;;;;;;;12.54;55.26;99806.75;1782185;80;21019;-42
2022/05/20 04:23:29;;;;;;;5.50;3.05;;;;;;;12.63;55.32;99800.50;1782559;80;21091;-42
2022/05/20 04:25:56;;;;;;;5.42;2.75;;;;;;;12.74;54.13;99802.63;1782523;80;21263;-42
2022/05/20 04:28:22;;;;;;;4.40;3.05;;;;;;;12.83;53.71;99801.23;1782327;80;21476;-42
2022/05/20 04:30:52;;;;;;;6.00;3.30;;;;;;;12.94;53.72;99798.12;1782460;80;20890;-42
2022/05/20 04:33:18;;;;;;;3.77;2.90;;;;;;;13.04;53.77;99796.14;1782446;80;20946;-42
2022/05/20 04:35:45;;;;;;;5.40;2.77;;;;;;;13.13;53.00;99787.75;1782456;80;21000;-42
2022/05/20 04:38:12;;;;;;;6.17;3.20;;;;;;;13.21;52.41;99787.30;1782209;80;23142;-43
2022/05/20 04:40:38;;;;;;;4.67;3.10;;;;;;;13.29;52.25;99794.41;1782546;80;21479;-43
2022/05/20 04:48:39;;;;;;;3.92;2.40;;;;;;;13.51;50.67;99795.52;1782657;80;21052;-43
2022/05/20 04:51:06;;;;;;;4.03;2.62;;;;;;;13.56;50.93;99793.80;1782245;80;21149;-43
2022/05/20 04:56:18;;;;;;;4.20;2.75;;;;;;;13.70;50.14;99789.94;1774273;80;21472;-43
2022/05/20 04:58:45;;;;;;;8.00;2.72;;;;;;;13.74;49.13;99782.02;1774260;80;20965;-43
2022/05/20 05:01:12;;;;;;;5.03;2.80;;;;;;;13.80;49.13;99791.41;1774344;80;21539;-43
2022/05/20 05:03:39;;;;;;;5.53;2.83;;;;;;;13.88;49.05;99788.22;1774332;80;21130;-43
2022/05/20 05:06:06;;;;;;;7.95;2.77;;;;;;;13.95;47.87;99786.92;1774153;80;21082;-43
2022/05/20 05:08:33;;;;;;;5.12;2.77;;;;;;;14.01;47.62;99786.80;1774353;80;20937;-43
2022/05/20 05:10:59;;;;;;;6.33;2.50;;;;;;;14.07;47.62;99788.63;1774358;80;21016;-43
2022/05/20 05:13:26;;;;;;;5.90;2.90;;;;;;;14.15;47.17;99790.27;1727893;80;21041;-43
2022/05/20 05:15:54;;;;;;;5.87;2.72;;;;;;;14.21;46.53;99798.33;1774161;80;21634;-43
2022/05/20 05:18:23;;;;;;;5.20;2.50;;;;;;;14.25;46.27;99803.24;1769960;80;21000;-44
2022/05/20 05:20:51;;;;;;;5.15;2.77;;;;;;;14.26;46.62;99804.24;1774487;80;21001;-43
2022/05/20 05:23:19;;;;;;;5.85;2.60;;;;;;;14.29;46.94;99807.58;1774171;80;21068;-43
2022/05/20 05:25:48;;;;;;;;;;;;;;;14.35;47.03;99798.48;1776909;80;21080;-43
2022/05/20 05:28:15;;;;;;;6.45;2.50;;;;;;;14.43;46.56;99806.18;1774178;80;21139;-43
2022/05/20 05:30:49;;;;;;;7.70;2.75;;;;;;;14.41;47.28;99800.33;1773951;80;20965;-43
2022/05/20 05:33:17;;;;;;;6.05;2.80;;;;;;;14.54;47.59;99797.53;1774072;80;21012;-43
2022/05/20 05:35:44;;;;;;;7.00;3.17;;;;;;;14.65;47.46;99801.16;1774610;80;21080;-43
2022/05/20 05:38:12;;;;;;;8.00;3.10;;;;;;;14.79;47.29;99815.72;1774143;80;20961;-43
2022/05/20 05:40:42;;;;;;;7.08;3.27;;;;;;;15.00;47.94;99814.34;1774237;80;21238;-43
2022/05/20 05:43:08;;;;;;;11.85;3.15;;;;;;;15.17;47.23;99816.41;1774059;80;20989;-43
2022/05/20 05:45:35;;;;;;;7.60;3.47;;;;;;;15.33;46.89;99818.30;1774140;80;20934;-43
2022/05/20 05:48:08;;;;;;;9.25;4.33;;;;;;;15.46;46.95;99819.55;1774147;80;21338;-43
2022/05/20 05:50:38;;;;;;;8.63;4.67;;;;;;;15.63;45.89;99826.33;1774514;80;21495;-43
2022/05/20 05:53:16;;;;;;;10.08;4.80;;;;;;;15.79;44.51;99819.95;1773972;80;21184;-44
2022/05/20 05:55:47;;;;;;;12.93;6.08;;;;;;;15.95;44.96;99818.28;1743582;82;21515;-43
2022/05/20 05:58:14;;;;;;;7.37;4.03;;;;;;;16.07;44.76;99815.98;1743466;82;20956;-43
2022/05/20 06:00:41;;;;;;;10.30;5.00;;;;;;;16.15;43.52;99825.59;1743518;82;21002;-43
2022/05/20 06:03:10;;;;;;;11.85;6.05;;;;;;;16.20;43.45;99826.59;1743243;82;21499;-44
2022/05/20 06:05:37;;;;;;;10.32;5.90;;;;;;;16.22;43.61;99830.50;1743584;82;21162;-43
2022/05/20 06:08:05;;;;;;;15.40;6.60;;;;;;;16.27;44.39;99823.28;1743400;82;21523;-43
2022/05/20 06:10:34;;;;;;;9.78;5.65;;;;;;;16.29;44.18;99818.22;1736501;82;20934;-43
2022/05/20 06:13:01;;;;;;;12.03;5.50;;;;;;;16.31;44.48;99815.89;1741176;82;21053;-44
2022/05/20 06:15:27;;;;;;;10.23;5.05;;;;;;;16.35;43.62;99820.00;1733847;82;21045;-43
2022/05/20 06:17:55;;;;;;;15.18;5.70;;;;;;;16.35;43.63;99826.84;1741914;82;23265;-43
2022/05/20 06:20:23;;;;;;;9.70;5.10;;;;;;;16.38;43.54;99833.69;1743043;82;21008;-43
2022/05/20 06:22:51;;;;;;;15.28;7.87;;;;;;;16.42;43.33;99831.73;1741715;82;20998;-44
2022/05/20 06:25:17;;;;;;;15.80;7.58;;;;;;;16.49;43.61;99833.14;1739219;82;21355;-43
2022/05/20 06:27:46;;;;;;;17.40;7.00;;;;;;;16.57;43.40;99836.66;1743548;82;21008;-44
2022/05/20 06:30:15;;;;;;;17.85;8.05;;;;;;;16.67;42.82;99840.04;1743430;82;21240;-43
2022/05/20 06:32:42;;;;;;;;;;;;;;;16.79;42.34;99843.01;1746220;82;21013;-44
2022/05/20 06:40:48;;;;;;;16.95;9.20;;;;;;;17.17;42.27;99829.91;1740654;82;21061;-43
2022/05/20 06:43:18;;;;;;;17.10;10.13;;;;;;;17.34;42.25;99825.58;1735599;82;21091;-43
2022/05/20 06:45:49;;;;;;;16.23;9.98;;;;;;;17.53;42.24;99827.12;1739231;82;20956;-44
2022/05/20 06:48:16;;;;;;;20.62;11.08;;;;;;;17.73;42.11;99820.05;1700180;84;21037;-44
2022/05/20 06:50:42;;;;;;;17.62;10.38;;;;;;;17.92;42.20;99825.09;1737713;82;21040;-43
2022/05/20 06:53:10;;;;;;;15.60;9.73;;;;;;;18.11;41.86;99830.70;1739978;82;21001;-44
2022/05/20 06:55:37;;;;;;;21.33;10.45;;;;;;;18.29;41.38;99823.78;1734084;82;21319;-43
2022/05/20 06:58:07;;;;;;;16.80;10.15;;;;;;;18.43;42.31;99824.48;1743955;82;21507;-44
2022/05/20 07:00:34;;;;;;;13.30;7.12;;;;;;;18.59;41.58;99819.89;1748005;82;22175;-43
2022/05/20 07:03:01;;;;;;;17.27;9.63;;;;;;;18.70;40.68;99823.95;1744957;82;21489;-43
2022/05/20 07:05:28;;;;;;;16.12;9.53;;;;;;;18.79;40.68;99822.90;1736081;82;21088;-43
2022/05/20 07:07:56;;;;;;;20.43;8.15;;;;;;;18.89;40.40;99817.92;1744444;82;21217;-43
2022/05/20 07:10:23;;;;;;;14.38;7.35;;;;;;;18.96;40.90;99819.26;1747245;82;21013;-44
2022/05/20 07:12:50;;;;;;;14.40;7.65;;;;;;;18.99;41.15;99815.69;1748509;82;20942;-43
2022/05/20 07:15:17;;;;;;;12.15;6.55;;;;;;;18.96;40.84;99820.63;1728582;82;21074;-43
2022/05/20 07:17:46;;;;;;;12.70;7.92;;;;;;;18.95;40.88;99808.07;1728082;82;21024;-43
2022/05/20 07:20:13;;;;;;;12.73;7.92;;;;;;;18.99;41.20;99803.32;1701771;83;21261;-43
2022/05/20 07:22:40;;;;;;;15.13;7.75;;;;;;;19.04;40.86;99798.77;1739252;82;21819;-44
2022/05/20 07:25:08;;;;;;;18.92;8.00;;;;;;;19.13;40.79;99800.45;1742962;82;21575;-44
2022/05/20 07:27:35;;;;;;;31.30;13.43;;;;;;;19.21;40.35;99797.84;1748614;82;21259;-44
2022/05/20 07:30:03;;;;;;;20.37;11.22;;;;;;;19.30;40.51;99798.16;1747360;82;21550;-44
2022/05/20 07:32:30;;;;;;;16.93;8.75;;;;;;;19.36;40.27;99799.87;1719023;83;21117;-44
2022/05/20 07:34:57;;;;;;;13.68;8.18;;;;;;;19.36;40.13;99802.03;1718893;83;21106;-44
2022/05/20 07:37:26;;;;;;;17.17;6.83;;;;;;;19.35;40.13;99796.34;1718801;83;20988;-44
2022/05/20 07:39:53;;;;;;;;;;;;;;;19.38;40.12;99795.52;1721550;83;21028;-44
2022/05/20 07:42:20;;;;;;;13.43;7.05;;;;;;;19.40;40.35;99799.23;1719113;83;20176;-44
2022/05/20 07:44:46;;;;;;;12.07;6.60;;;;;;;19.34;40.74;99801.64;1719347;83;21913;-44
2022/05/20 07:47:13;;;;;;;13.10;7.05;;;;;;;19.39;40.40;99792.95;1719021;83;21480;-44
2022/05/20 07:49:40;;;;;;;11.95;6.45;;;;;;;19.49;40.33;99788.56;1719176;83;21029;-43
2022/05/20 07:52:08;;;;;;;13.88;7.20;;;;;;;19.55;39.49;99786.16;1719041;83;21030;-43
2022/05/20 07:54:37;;;;;;;12.95;7.15;;;;;;;19.59;39.87;99784.92;1683032;84;20993;-44
2022/05/20 07:57:07;;;;;;;12.85;6.83;;;;;;;19.65;40.15;99793.52;1692842;84;21531;-43
2022/05/20 07:59:48;;;;;;;;;;;;;;;19.71;39.98;99794.59;1695364;84;21048;-43
2022/05/20 08:02:16;;;;;;;10.00;5.75;;;;;;;19.75;39.72;99783.73;1692467;84;20112;-43
2022/05/20 08:04:55;;;;;;;13.35;4.87;;;;;;;19.77;39.07;99784.71;1692911;84;20930;-44
2022/05/20 08:07:41;;;;;;;12.50;4.70;;;;;;;19.93;38.11;99778.05;1693129;84;21523;-43
2022/05/20 08:10:21;;;;;;;8.65;5.00;;;;;;;20.13;38.15;99780.34;1692775;84;21063;-44
2022/05/20 08:12:48;;;;;;;7.15;4.50;;;;;;;20.29;37.46;99773.61;1691745;84;28269;-44
2022/05/20 08:15:15;;;;;;;12.07;5.70;;;;;;;20.44;37.56;99770.69;1692711;84;20910;-44
2022/05/20 08:17:44;;;;;;;10.10;4.65;;;;;;;20.54;37.00;99761.48;1692837;84;21664;-44
2022/05/20 08:20:18;;;;;;;10.63;5.10;;;;;;;20.60;36.72;99757.08;1692519;84;21519;-44
2022/05/20 08:22:44;;;;;;;11.80;4.70;;;;;;;20.66;36.51;99752.66;1692630;84;22022;-44
2022/05/20 08:25:10;;;;;;;10.03;4.60;;;;;;;20.79;36.57;99754.99;1692375;84;20926;-44
2022/05/20 08:27:38;;;;;;;7.70;5.20;;;;;;;20.93;36.39;99751.22;1692520;84;21016;-44
2022/05/20 08:30:12;;;;;;;7.92;4.62;;;;;;;21.04;36.63;99744.93;1692510;84;21568;-44
2022/05/20 08:32:41;;;;;;;10.38;4.67;;;;;;;21.08;34.96;99740.91;1699151;83;21506;-44
2022/05/20 08:35:09;;;;;;;8.10;4.13;;;;;;;21.10;35.41;99726.13;1704278;83;21150;-44
2022/05/20 08:37:41;;;;;;;10.50;4.00;;;;;;;21.14;35.11;99729.61;1714021;83;21718;-43
2022/05/20 08:40:11;;;;;;;;;;;;;;;21.25;34.30;99725.29;1717284;83;21123;-44
2022/05/20 08:42:38;;;;;;;4.30;3.20;;;;;;;21.38;32.98;99726.81;1683727;85;20131;-44
2022/05/20 08:45:06;;;;;;;7.17;3.50;;;;;;;21.45;33.50;99719.77;1684818;85;21053;-44
2022/05/20 08:47:43;;;;;;;12.90;3.45;;;;;;;21.72;32.41;99717.66;1685185;85;21184;-44
2022/05/20 08:50:24;;;;;;;10.20;3.70;;;;;;;21.93;32.16;99717.22;1684657;85;21008;-44
2022/05/20 08:52:56;;;;;;;6.15;3.17;;;;;;;22.04;30.13;99712.84;1684932;85;21092;-44
2022/05/20 08:55:22;;;;;;;7.42;3.58;;;;;;;22.01;30.15;99707.59;1705989;83;21522;-44
2022/05/20 08:58:00;;;;;;;8.30;2.95;;;;;;;22.05;30.79;99703.36;1716756;83;21347;-43
2022/05/20 09:00:28;;;;;;;6.35;3.40;;;;;;;22.17;30.83;99704.69;1717146;83;21149;-44
2022/05/20 09:02:55;;;;;;;8.30;3.30;;;;;;;22.26;30.40;99707.63;1717235;83;20976;-44
2022/05/20 09:05:27;;;;;;;9.13;3.35;;;;;;;22.35;30.46;99709.20;1717254;83;21574;-44
2022/05/20 09:08:03;;;;;;;5.47;3.20;;;;;;;22.43;29.70;99703.06;1716946;83;21526;-44
2022/05/20 09:10:34;;;;;;;6.97;2.83;;;;;;;22.48;29.18;99697.02;1725541;82;21045;-43
2022/05/20 09:13:08;;;;;;;7.45;3.30;;;;;;;22.43;29.65;99685.11;1733718;82;21108;-43
2022/05/20 09:15:46;;;;;;;6.15;2.58;;;;;;;22.43;29.47;99684.33;1740643;82;20973;-44
2022/05/20 09:18:22;;;;;;;5.58;2.35;;;;;;;22.43;27.48;99683.72;1733623;82;21051;-43
2022/05/20 09:20:51;;;;;;;4.70;2.60;;;;;;;22.44;27.49;99681.14;1717057;83;20995;-43
2022/05/20 09:23:22;;;;;;;6.42;2.83;;;;;;;22.52;27.89;99681.13;1719104;83;21095;-44
2022/05/20 09:26:11;;;;;;;5.25;2.77;;;;;;;22.59;26.83;99670.52;1718932;83;21107;-44
2022/05/20 09:28:47;;;;;;;18.25;9.53;;;;;;;22.69;28.43;99675.00;1734251;82;20937;-44
2022/05/20 09:32:01;;;;;;;;;;;;;;;;;;;;;
2022/05/20 09:34:33;;;;;;;4.17;2.50;;;;;;;22.88;26.39;99666.45;1707312;83;21061;-43
2022/05/20 09:37:05;;;;;;;5.28;2.80;;;;;;;22.88;25.65;99652.63;1711802;83;21554;-43
2022/05/20 09:39:39;;;;;;;5.80;2.87;;;;;;;22.83;25.51;99652.55;1724365;82;21094;-43
2022/05/20 09:42:20;;;;;;;5.70;3.00;;;;;;;22.78;25.13;99653.08;1737238;82;21479;-43
2022/05/20 09:44:52;;;;;;;10.55;3.22;;;;;;;22.78;25.66;99653.67;1741305;82;21048;-43
2022/05/20 09:47:36;;;;;;;5.65;3.20;;;;;;;22.83;25.75;99643.48;1734200;82;21586;-41
2022/05/20 09:50:19;;;;;;;4.55;2.83;;;;;;;22.99;25.70;99639.90;1734613;82;21525;-41
2022/05/20 09:52:53;;;;;;;5.83;3.17;;;;;;;23.17;24.81;99644.33;1725350;82;21139;-41
2022/05/20 09:55:37;;;;;;;4.75;2.98;;;;;;;23.32;23.93;99628.28;1734215;82;21029;-41
2022/05/20 09:58:19;;;;;;;6.50;2.85;;;;;;;23.41;24.26;99623.48;1734404;82;20974;-41
2022/05/20 10:00:54;;;;;;;4.53;2.65;;;;;;;23.57;24.62;99620.67;1733000;82;20926;-41
2022/05/20 10:03:31;;;;;;;7.47;2.90;;;;;;;23.78;23.73;99620.00;1721494;82;21018;-41
2022/05/20 10:06:14;;;;;;;5.20;2.70;;;;;;;24.01;23.55;99611.97;1734362;82;22019;-41
2022/05/20 10:08:50;;;;;;;5.92;3.05;;;;;;;24.27;23.78;99596.73;1730106;82;20977;-41
2022/05/20 10:11:35;;;;;;;4.90;3.05;;;;;;;24.54;23.79;99597.80;1733703;82;20958;-41
2022/05/20 10:14:27;;;;;;;5.92;2.75;;;;;;;24.79;22.92;99589.97;1734114;82;21014;-41
2022/05/20 10:17:04;;;;;;;2.22;2.02;;;;;;;24.97;23.67;99589.39;1734277;82;21093;-41
2022/05/20 10:19:58;;;;;;;5.53;2.35;;;;;;;25.10;23.01;99575.61;1728577;82;21296;-41
2022/05/20 10:22:33;;;;;;;5.85;2.62;;;;;;;25.13;22.90;99579.46;1734100;82;21005;-41
2022/05/20 10:25:33;;;;;;;3.58;2.25;;;;;;;25.12;23.86;99571.00;1710724;82;21084;-41
2022/05/20 10:34:26;;;;;;;2.70;1.90;;;;;;;25.42;24.04;99557.73;1626562;87;22386;-41
2022/05/20 10:37:17;;;;;;;5.50;1.90;;;;;;;25.57;24.14;99548.88;1624048;88;21029;-41
2022/05/20 10:40:38;;;;;;;6.12;2.05;;;;;;;25.66;23.79;99548.95;1657178;83;21061;-41
2022/05/20 10:49:48;;;;;;;7.42;2.45;;;;;;;26.27;23.50;99530.75;1748056;82;21150;-43
2022/05/20 10:52:34;;;;;;;3.62;2.02;;;;;;;26.52;23.71;99521.34;1747609;82;20941;-44
2022/05/20 10:55:19;;;;;;;2.52;1.82;;;;;;;26.91;23.62;99521.64;1748262;82;21037;-43
2022/05/20 10:58:41;;;;;;;3.08;1.82;;;;;;;27.11;22.16;99517.73;1727893;82;21035;-42
2022/05/20 11:01:57;;;;;;;3.58;2.08;;;;;;;27.12;22.00;99515.85;1728778;82;21003;-42
2022/05/20 11:04:41;;;;;;;5.87;2.00;;;;;;;27.11;22.04;99512.91;1731763;82;21226;-42
2022/05/20 11:07:51;;;;;;;4.53;2.00;;;;;;;27.18;22.14;99503.47;1641776;83;21050;-42
2022/05/20 11:10:48;;;;;;;3.87;2.10;;;;;;;27.14;21.66;99493.91;1736206;81;21009;-42
2022/05/20 11:13:52;;;;;;;4.87;2.22;;;;;;;27.19;21.87;99495.28;1743656;82;20961;-42
2022/05/20 11:16:49;;;;;;;4.05;1.98;;;;;;;27.27;21.17;99486.73;1746247;81;21116;-42
2022/05/20 11:19:55;;;;;;;2.72;1.62;;;;;;;27.29;21.42;99480.70;1751287;82;21967;-42
2022/05/20 11:23:06;;;;;;;5.33;1.70;;;;;;;27.27;21.51;99472.04;1751194;82;20968;-42
2022/05/20 11:26:08;;;;;;;4.50;1.65;;;;;;;27.45;21.74;99470.59;1630497;87;21090;-42
2022/05/20 11:29:10;;;;;;;4.20;1.60;;;;;;;27.85;21.35;99467.43;1630369;88;21020;-42
2022/05/20 11:32:05;;;;;;;3.35;1.70;;;;;;;28.15;20.32;99462.14;1745958;82;21036;-42
2022/05/20 11:35:11;;;;;;;6.62;2.00;;;;;;;28.16;20.65;99454.55;1721632;83;21087;-42
2022/05/20 11:37:47;;;;;;;2.95;1.60;;;;;;;28.16;20.41;99451.77;1721203;83;21020;-44
2022/05/20 11:40:41;;;;;;;2.60;1.55;;;;;;;28.09;20.94;99452.86;1721084;83;21043;-44
2022/05/20 11:43:49;;;;;;;5.80;1.65;;;;;;;27.91;20.35;99449.59;1721539;83;21024;-44
2022/05/20 11:46:33;;;;;;;3.65;1.70;;;;;;;27.45;21.06;99445.53;1736083;82;21575;-43
2022/05/20 11:49:16;;;;;;;4.35;1.80;;;;;;;26.98;21.82;99442.00;1744225;81;21260;-44
2022/05/20 11:52:31;;;;;;;4.67;2.05;;;;;;;26.67;21.81;99447.78;1734583;81;21001;-44
2022/05/20 11:55:15;;;;;;;4.45;1.92;;;;;;;26.43;21.38;99445.50;1724859;82;21068;-44
2022/05/20 11:57:51;;;;;;;6.62;1.50;;;;;;;26.19;21.46;99432.83;1721635;83;21072;-44
2022/05/20 12:00:21;;;;;;;3.22;1.60;;;;;;;26.30;21.68;99431.14;1721466;82;21025;-44
2022/05/20 12:03:00;;;;;;;3.08;1.52;;;;;;;26.54;21.34;99431.26;1725397;82;23268;-43
2022/05/20 12:05:32;;;;;;;2.42;1.60;;;;;;;26.88;20.68;99418.22;1727150;83;21846;-42
2022/05/20 12:08:00;;;;;;;5.72;1.80;;;;;;;27.28;20.15;99407.55;1727001;83;21298;-43
2022/05/20 12:10:45;;;;;;;2.90;1.60;;;;;;;27.75;20.42;99411.00;1726431;83;21046;-42
2022/05/20 12:13:25;;;;;;;2.62;1.70;;;;;;;28.29;19.66;99411.84;1726932;83;21587;-42
2022/05/20 12:16:14;;;;;;;;;;;;;;;28.57;19.35;99403.97;1746441;82;21108;-43
2022/05/20 12:24:50;;;;;;;4.60;1.77;;;;;;;28.93;18.57;99390.41;1747434;82;21612;-43
2022/05/20 12:27:28;;;;;;;5.53;1.82;;;;;;;28.80;19.20;99374.61;1748634;82;21001;-43
2022/05/20 12:30:03;;;;;;;2.58;1.50;;;;;;;28.66;18.80;99389.29;1748735;82;21181;-43
2022/05/20 12:32:38;;;;;;;3.58;1.40;;;;;;;28.38;18.79;99380.45;1748765;82;21047;-43
2022/05/20 12:35:19;;;;;;;2.62;1.70;;;;;;;28.11;19.25;99376.55;1748596;82;20993;-42
2022/05/20 12:37:53;;;;;;;2.75;1.55;;;;;;;27.85;20.09;99366.50;1749056;82;21028;-43
2022/05/20 12:40:32;;;;;;;6.40;1.70;;;;;;;27.47;19.50;99366.45;1748612;82;21092;-42
2022/05/20 12:43:09;;;;;;;6.55;1.90;;;;;;;27.05;20.06;99374.27;1748739;82;21133;-42
2022/05/20 12:45:57;;;;;;;4.22;1.70;;;;;;;26.64;20.29;99373.61;1748419;82;20937;-42
2022/05/20 12:48:28;;;;;;;;;;;;;;;26.30;20.57;99378.33;1738585;82;21692;-42